createdAt,value
2019-02-21T00:00:39.331Z,98.39
2019-02-21T00:07:17.861Z,98.38
2019-02-21T00:13:48.644Z,99.53
2019-02-21T00:20:16.565Z,99.42
2019-02-21T00:26:49.453Z,99.50
2019-02-21T00:33:14.263Z,99.78
2019-02-21T00:39:48.168Z,99.87
2019-02-21T00:46:14.991Z,100.00
2019-02-21T00:52:53.942Z,99.52
2019-02-21T01:02:44.706Z,99.10
2019-02-21T01:12:20.490Z,99.27
2019-02-21T01:18:50.361Z,99.70
2019-02-21T01:25:17.187Z,99.13
2019-02-21T01:31:45.021Z,99.35
2019-02-21T01:38:27.769Z,99.15
2019-02-21T01:44:53.627Z,99.25
2019-02-21T01:51:22.684Z,99.52
2019-02-21T01:58:00.484Z,99.07
2019-02-21T02:04:27.447Z,99.14
2019-02-21T02:10:29.031Z,99.02
2019-02-21T02:16:45.664Z,98.92
2019-02-21T02:23:25.733Z,98.76
2019-02-21T02:29:51.293Z,98.96
2019-02-21T02:36:17.142Z,98.65
2019-02-21T02:42:56.106Z,98.98
2019-02-21T02:49:26.047Z,99.43
2019-02-21T02:55:56.874Z,99.33
2019-02-21T03:02:22.674Z,99.93
2019-02-21T03:08:49.327Z,100.00
2019-02-21T03:15:08.219Z,100.00
2019-02-21T03:21:34.263Z,100.00
2019-02-21T03:28:18.463Z,100.00
2019-02-21T03:34:44.090Z,100.00
2019-02-21T03:41:12.931Z,100.00
2019-02-21T03:47:50.890Z,99.65
2019-02-21T03:54:16.489Z,99.92
2019-02-21T04:00:43.157Z,100.00
2019-02-21T04:07:13.381Z,99.94
2019-02-21T04:16:43.698Z,99.43
2019-02-21T04:23:22.981Z,99.74
2019-02-21T04:29:48.801Z,99.92
2019-02-21T04:36:23.430Z,100.00
2019-02-21T04:42:49.532Z,100.00
2019-02-21T04:49:17.372Z,100.00
2019-02-21T04:55:45.213Z,99.72
2019-02-21T05:02:13.717Z,100.00
2019-02-21T05:08:51.864Z,100.00
2019-02-21T05:18:56.995Z,100.00
2019-02-21T05:25:25.841Z,100.00
2019-02-21T05:31:58.734Z,100.00
2019-02-21T05:38:54.852Z,100.00
2019-02-21T05:45:43.448Z,100.00
2019-02-21T05:52:39.485Z,100.00
2019-02-21T05:59:31.970Z,100.00
2019-02-21T06:06:38.324Z,100.00
2019-02-21T06:12:56.060Z,100.00
2019-02-21T06:19:28.953Z,100.00
2019-02-21T06:26:14.757Z,100.00
2019-02-21T06:29:09.687Z,100.00
2019-02-21T06:35:32.493Z,100.00
2019-02-21T06:42:00.520Z,100.00
2019-02-21T06:48:27.178Z,100.00
2019-02-21T06:55:09.140Z,100.00
2019-02-21T07:01:33.958Z,100.00
2019-02-21T07:08:03.587Z,100.00
2019-02-21T07:14:35.584Z,100.00
2019-02-21T07:21:02.523Z,100.00
2019-02-21T07:27:30.148Z,100.00
2019-02-21T07:33:57.191Z,100.00
2019-02-21T07:40:23.014Z,100.00
2019-02-21T07:47:01.959Z,100.00
2019-02-21T07:53:27.782Z,100.00
2019-02-21T07:59:29.168Z,100.00
2019-02-21T08:06:08.322Z,100.00
2019-02-21T08:12:34.142Z,100.00
2019-02-21T08:22:47.964Z,100.00
2019-02-21T08:29:14.046Z,100.00
2019-02-21T08:35:37.619Z,100.00
2019-02-21T08:41:44.466Z,100.00
2019-02-21T08:48:08.025Z,100.00
2019-02-21T08:54:21.986Z,100.00
2019-02-21T09:00:47.787Z,100.00
2019-02-21T09:07:26.389Z,100.00
2019-02-21T09:13:52.555Z,100.00
2019-02-21T09:23:31.282Z,100.00
2019-02-21T09:29:20.742Z,100.00
2019-02-21T09:35:49.590Z,100.00
2019-02-21T09:42:29.381Z,100.00
2019-02-21T09:49:05.471Z,100.00
2019-02-21T09:55:34.121Z,100.00
2019-02-21T10:02:11.025Z,100.00
2019-02-21T10:08:34.831Z,100.00
2019-02-21T10:14:58.628Z,100.00
2019-02-21T10:25:24.049Z,100.00
2019-02-21T10:31:27.423Z,100.00
2019-02-21T10:37:56.492Z,100.00
2019-02-21T10:44:26.367Z,100.00
2019-02-21T10:50:57.661Z,100.00
2019-02-21T10:57:37.182Z,100.00
2019-02-21T11:04:04.016Z,100.00
2019-02-21T11:10:29.833Z,100.00
2019-02-21T11:17:07.696Z,100.00
2019-02-21T11:26:56.604Z,100.00
2019-02-21T11:33:27.060Z,100.00
2019-02-21T11:39:55.314Z,100.00
2019-02-21T11:46:19.115Z,100.00
2019-02-21T11:52:57.714Z,100.00
2019-02-21T11:59:23.882Z,100.00
2019-02-21T12:05:17.575Z,98.79
2019-02-21T12:11:42.901Z,97.06
2019-02-21T12:18:24.175Z,96.93
2019-02-21T12:28:27.144Z,96.78
2019-02-21T12:34:52.963Z,97.07
2019-02-21T12:41:22.861Z,96.63
2019-02-21T12:47:57.518Z,97.23
2019-02-21T12:54:26.225Z,94.44
2019-02-21T13:00:52.404Z,94.22
2019-02-21T13:06:43.514Z,93.90
2019-02-21T13:17:10.085Z,93.52
2019-02-21T13:23:49.036Z,93.00
2019-02-21T13:30:06.559Z,92.46
2019-02-21T13:36:36.634Z,91.25
2019-02-21T13:43:15.587Z,89.32
2019-02-21T13:49:43.223Z,89.23
2019-02-21T13:56:10.253Z,88.21
2019-02-21T14:02:33.696Z,87.73
2019-02-21T14:09:12.646Z,86.95
2019-02-21T14:15:40.843Z,87.69
2019-02-21T14:22:06.665Z,83.54
2019-02-21T14:31:43.119Z,79.19
2019-02-21T14:38:27.938Z,78.87
2019-02-21T14:44:49.573Z,74.03
2019-02-21T14:51:14.974Z,75.73
2019-02-21T14:57:42.822Z,75.53
2019-02-21T15:04:21.765Z,76.31
2019-02-21T15:10:49.605Z,77.15
2019-02-21T15:17:15.200Z,76.90
2019-02-21T15:23:57.024Z,76.34
2019-02-21T15:34:02.024Z,77.59
2019-02-21T15:40:28.217Z,78.53
2019-02-21T15:46:56.058Z,76.80
2019-02-21T15:53:34.729Z,75.91
2019-02-21T16:00:02.617Z,76.25
2019-02-21T16:06:31.351Z,76.03
2019-02-21T16:13:04.203Z,77.72
2019-02-21T16:19:44.332Z,77.75
2019-02-21T16:26:11.373Z,79.75
2019-02-21T16:36:26.230Z,82.43
2019-02-21T16:42:52.091Z,88.34
2019-02-21T16:49:33.257Z,91.40
2019-02-21T16:55:58.070Z,93.30
2019-02-21T17:02:26.916Z,94.02
2019-02-21T17:09:08.658Z,95.62
2019-02-21T17:15:34.510Z,94.83
2019-02-21T17:22:04.459Z,94.84
2019-02-21T17:28:31.407Z,94.70
2019-02-21T17:38:14.811Z,94.87
2019-02-21T17:44:55.815Z,95.24
2019-02-21T17:51:25.763Z,95.78
2019-02-21T17:57:51.836Z,95.76
2019-02-21T18:04:31.402Z,96.41
2019-02-21T18:10:57.618Z,96.76
2019-02-21T18:17:26.549Z,96.88
2019-02-21T18:23:51.276Z,97.87
2019-02-21T18:30:17.101Z,98.07
2019-02-21T18:40:23.874Z,98.22
2019-02-21T18:46:49.928Z,98.80
2019-02-21T18:53:18.438Z,98.73
2019-02-21T18:59:59.751Z,99.12
2019-02-21T19:06:27.348Z,99.86
2019-02-21T19:12:53.199Z,100.00
2019-02-21T19:19:09.129Z,100.00
2019-02-21T19:25:48.076Z,100.00
2019-02-21T19:32:13.904Z,99.78
2019-02-21T19:42:29.667Z,100.00
2019-02-21T19:48:51.580Z,100.00
2019-02-21T19:55:30.371Z,100.00
2019-02-21T20:02:00.318Z,100.00
2019-02-21T20:08:28.217Z,100.00
2019-02-21T20:15:05.357Z,100.00
2019-02-21T20:21:30.973Z,100.00
2019-02-21T20:27:58.006Z,100.00
2019-02-21T20:34:21.804Z,100.00
2019-02-21T20:43:57.536Z,100.00
2019-02-21T20:50:35.449Z,100.00
2019-02-21T20:57:04.295Z,100.00
2019-02-21T21:03:31.127Z,100.00
2019-02-21T21:09:56.725Z,100.00
2019-02-21T21:16:33.874Z,100.00
2019-02-21T21:23:04.410Z,100.00
2019-02-21T21:29:34.347Z,100.00
2019-02-21T21:35:47.086Z,100.00
2019-02-21T21:46:00.278Z,100.00
2019-02-21T21:52:26.936Z,100.00
2019-02-21T21:58:59.075Z,100.00
2019-02-21T22:05:23.884Z,100.00
2019-02-21T22:11:48.593Z,100.00
2019-02-21T22:18:15.524Z,100.00
2019-02-21T22:24:41.106Z,100.00
2019-02-21T22:31:11.877Z,100.00
2019-02-21T22:37:00.445Z,100.00
2019-02-21T22:47:01.616Z,100.00
2019-02-21T22:53:27.190Z,100.00
2019-02-21T22:59:53.041Z,100.00
2019-02-21T23:06:45.104Z,100.00
2019-02-21T23:13:26.308Z,100.00
2019-02-21T23:20:03.022Z,100.00
2019-02-21T23:32:59.923Z,100.00
2019-02-21T23:38:49.025Z,100.00
2019-02-21T23:45:19.246Z,100.00
2019-02-21T23:51:46.868Z,100.00
2019-02-21T23:58:15.590Z,100.00
